createdAt,value
2018-11-28T00:02:13.108Z,4.50
2018-11-28T00:04:41.367Z,4.40
2018-11-28T00:07:09.484Z,4.40
2018-11-28T00:09:37.686Z,4.40
2018-11-28T00:12:05.856Z,4.50
2018-11-28T00:14:34.060Z,4.50
2018-11-28T00:17:02.232Z,4.50
2018-11-28T00:19:30.434Z,4.40
2018-11-28T00:21:58.600Z,4.50
2018-11-28T00:24:26.819Z,4.50
2018-11-28T00:26:54.998Z,4.50
2018-11-28T00:29:23.164Z,4.40
2018-11-28T00:31:51.368Z,4.50
2018-11-28T00:34:19.537Z,4.50
2018-11-28T00:36:47.740Z,4.40
2018-11-28T00:39:15.911Z,4.40
2018-11-28T00:41:44.109Z,4.40
2018-11-28T00:44:12.285Z,4.40
2018-11-28T00:46:40.489Z,4.40
2018-11-28T00:49:08.663Z,4.40
2018-11-28T00:51:36.859Z,4.40
2018-11-28T00:54:05.216Z,4.40
2018-11-28T00:56:33.340Z,4.40
2018-11-28T00:59:01.520Z,4.40
2018-11-28T01:01:29.706Z,4.40
2018-11-28T01:03:57.881Z,4.40
2018-11-28T01:06:26.080Z,4.40
2018-11-28T01:08:54.263Z,4.40
2018-11-28T01:11:22.456Z,4.40
2018-11-28T01:13:50.636Z,4.40
2018-11-28T01:16:18.833Z,4.40
2018-11-28T01:18:47.015Z,4.40
2018-11-28T01:21:15.204Z,4.40
2018-11-28T01:23:43.380Z,4.40
2018-11-28T01:26:11.625Z,4.30
2018-11-28T01:28:39.756Z,4.30
2018-11-28T01:31:07.961Z,4.30
2018-11-28T01:33:36.132Z,4.30
2018-11-28T01:36:04.716Z,4.20
2018-11-28T01:38:32.807Z,4.20
2018-11-28T01:41:01.008Z,4.20
2018-11-28T01:43:29.193Z,4.10
2018-11-28T01:45:57.369Z,4.10
2018-11-28T01:48:25.563Z,4.10
2018-11-28T01:50:53.739Z,4.00
2018-11-28T01:53:21.940Z,4.00
2018-11-28T01:55:50.112Z,3.90
2018-11-28T01:58:18.307Z,3.90
2018-11-28T02:00:46.499Z,3.80
2018-11-28T02:03:14.693Z,3.80
2018-11-28T02:05:42.867Z,3.80
2018-11-28T02:08:11.061Z,3.70
2018-11-28T02:10:39.237Z,3.70
2018-11-28T02:13:07.440Z,3.70
2018-11-28T02:15:35.613Z,3.60
2018-11-28T02:18:03.808Z,3.60
2018-11-28T02:20:31.993Z,3.50
2018-11-28T02:23:00.395Z,3.50
2018-11-28T02:25:28.565Z,3.40
2018-11-28T02:27:56.769Z,3.40
2018-11-28T02:30:24.973Z,3.40
2018-11-28T02:32:53.135Z,3.30
2018-11-28T02:35:21.327Z,3.30
2018-11-28T02:37:49.733Z,3.30
2018-11-28T02:40:18.689Z,3.20
2018-11-28T02:42:47.503Z,3.20
2018-11-28T02:45:18.644Z,3.20
2018-11-28T02:47:46.806Z,3.10
2018-11-28T02:50:14.978Z,3.10
2018-11-28T02:52:43.144Z,3.10
2018-11-28T02:55:13.043Z,3.10
2018-11-28T02:57:42.141Z,3.00
2018-11-28T03:00:13.744Z,3.00
2018-11-28T03:02:41.831Z,3.00
2018-11-28T03:05:11.416Z,3.00
2018-11-28T03:07:39.556Z,3.00
2018-11-28T03:10:13.655Z,3.00
2018-11-28T03:12:41.854Z,3.00
2018-11-28T03:15:11.868Z,2.90
2018-11-28T03:17:40.065Z,2.90
2018-11-28T03:20:09.664Z,2.90
2018-11-28T03:22:37.774Z,2.90
2018-11-28T03:25:07.560Z,2.90
2018-11-28T03:27:35.688Z,2.90
2018-11-28T03:30:05.280Z,2.80
2018-11-28T03:32:33.361Z,2.80
2018-11-28T03:35:01.481Z,2.80
2018-11-28T03:37:29.635Z,2.70
2018-11-28T03:39:57.727Z,2.80
2018-11-28T03:42:25.900Z,2.70
2018-11-28T03:44:53.983Z,2.70
2018-11-28T03:47:22.082Z,2.70
2018-11-28T03:49:50.268Z,2.70
2018-11-28T03:52:18.440Z,2.70
2018-11-28T03:54:46.646Z,2.70
2018-11-28T03:57:14.728Z,2.70
2018-11-28T03:59:42.908Z,2.70
2018-11-28T04:02:10.993Z,2.70
2018-11-28T04:04:39.187Z,2.70
2018-11-28T04:07:07.262Z,2.70
2018-11-28T04:09:35.352Z,2.70
2018-11-28T04:12:03.537Z,2.70
2018-11-28T04:14:31.634Z,2.70
2018-11-28T04:16:59.815Z,2.70
2018-11-28T04:19:28.000Z,2.70
2018-11-28T04:21:56.177Z,2.70
2018-11-28T04:24:24.269Z,2.70
2018-11-28T04:26:52.448Z,2.70
2018-11-28T04:29:20.544Z,2.80
2018-11-28T04:31:48.747Z,2.80
2018-11-28T04:34:16.945Z,2.80
2018-11-28T04:36:45.125Z,2.80
2018-11-28T04:39:13.316Z,2.80
2018-11-28T04:41:41.501Z,2.90
2018-11-28T04:44:09.682Z,2.90
2018-11-28T04:46:37.886Z,2.90
2018-11-28T04:49:06.060Z,2.90
2018-11-28T04:51:34.245Z,2.90
2018-11-28T04:54:02.433Z,3.00
2018-11-28T04:56:30.623Z,3.00
2018-11-28T04:58:58.791Z,3.00
2018-11-28T05:01:26.992Z,3.00
2018-11-28T05:03:55.360Z,3.00
2018-11-28T05:06:34.933Z,3.00
2018-11-28T05:09:03.144Z,3.00
2018-11-28T05:11:31.324Z,3.00
2018-11-28T05:13:59.508Z,3.00
2018-11-28T05:16:27.688Z,3.00
2018-11-28T05:18:55.868Z,3.00
2018-11-28T05:21:24.060Z,3.00
2018-11-28T05:23:52.248Z,3.00
2018-11-28T05:26:20.445Z,3.00
2018-11-28T05:28:48.629Z,2.90
2018-11-28T05:31:16.824Z,2.90
2018-11-28T05:33:45.003Z,2.90
2018-11-28T05:36:13.192Z,2.80
2018-11-28T05:38:41.364Z,2.80
2018-11-28T05:41:09.564Z,2.80
2018-11-28T05:43:37.740Z,2.80
2018-11-28T05:46:06.164Z,2.80
2018-11-28T05:48:34.316Z,2.70
2018-11-28T05:51:03.437Z,2.70
2018-11-28T05:53:31.608Z,2.70
2018-11-28T05:55:59.803Z,2.70
2018-11-28T05:58:27.988Z,2.70
2018-11-28T06:00:56.176Z,2.70
2018-11-28T06:03:24.360Z,2.70
2018-11-28T06:05:52.552Z,2.70
2018-11-28T06:08:20.742Z,2.70
2018-11-28T06:10:48.939Z,2.60
2018-11-28T06:13:17.104Z,2.60
2018-11-28T06:15:45.308Z,2.60
2018-11-28T06:18:13.484Z,2.60
2018-11-28T06:20:41.677Z,2.60
2018-11-28T06:23:09.880Z,2.60
2018-11-28T06:25:38.048Z,2.60
2018-11-28T06:28:06.240Z,2.60
2018-11-28T06:30:34.449Z,2.50
2018-11-28T06:33:02.616Z,2.50
2018-11-28T06:35:30.792Z,2.50
2018-11-28T06:37:58.989Z,2.50
2018-11-28T06:40:27.172Z,2.50
2018-11-28T06:42:55.368Z,2.50
2018-11-28T06:45:23.536Z,2.50
2018-11-28T06:47:51.736Z,2.50
2018-11-28T06:50:20.151Z,2.50
2018-11-28T06:52:49.400Z,2.50
2018-11-28T06:55:19.519Z,2.50
2018-11-28T06:57:47.670Z,2.50
2018-11-28T07:00:16.824Z,2.50
2018-11-28T07:02:45.220Z,2.50
2018-11-28T07:05:13.424Z,2.50
2018-11-28T07:07:41.837Z,2.50
2018-11-28T07:10:14.888Z,2.50
2018-11-28T07:12:43.036Z,2.50
2018-11-28T07:15:14.140Z,2.50
2018-11-28T07:17:42.744Z,2.50
2018-11-28T07:20:11.848Z,2.50
2018-11-28T07:22:39.973Z,2.50
2018-11-28T07:25:09.656Z,2.50
2018-11-28T07:27:37.780Z,2.50
2018-11-28T07:30:11.973Z,2.50
2018-11-28T07:32:40.193Z,2.50
2018-11-28T07:35:09.065Z,2.50
2018-11-28T07:37:37.251Z,2.50
2018-11-28T07:40:17.563Z,2.50
2018-11-28T07:43:16.771Z,2.50
2018-11-28T07:45:49.288Z,2.60
2018-11-28T07:48:17.460Z,2.60
2018-11-28T07:50:45.628Z,2.60
2018-11-28T07:53:13.724Z,2.60
2018-11-28T07:55:41.916Z,2.60
2018-11-28T07:58:10.097Z,2.60
2018-11-28T08:00:38.432Z,2.70
2018-11-28T08:03:07.855Z,2.70
2018-11-28T08:05:37.172Z,2.70
2018-11-28T08:08:06.896Z,2.80
2018-11-28T08:10:35.056Z,2.80
2018-11-28T08:13:03.236Z,2.80
2018-11-28T08:15:31.396Z,2.90
2018-11-28T08:17:59.583Z,2.90
2018-11-28T08:20:27.697Z,2.90
2018-11-28T08:22:55.853Z,3.00
2018-11-28T08:25:27.657Z,3.00
2018-11-28T08:27:52.254Z,3.00
2018-11-28T08:30:25.408Z,3.10
2018-11-28T08:32:54.296Z,3.10
2018-11-28T08:35:22.449Z,3.20
2018-11-28T08:37:50.632Z,3.30
2018-11-28T08:40:21.007Z,3.30
2018-11-28T08:42:49.168Z,3.40
2018-11-28T08:45:18.287Z,3.40
2018-11-28T08:47:47.418Z,3.40
2018-11-28T08:50:17.773Z,3.40
2018-11-28T08:52:45.872Z,3.50
2018-11-28T08:55:14.337Z,3.60
2018-11-28T08:57:42.520Z,3.60
2018-11-28T09:00:18.247Z,3.70
2018-11-28T09:02:50.148Z,3.80
2018-11-28T09:05:18.280Z,3.90
2018-11-28T09:07:46.474Z,4.00
2018-11-28T09:10:16.352Z,4.00
2018-11-28T09:12:45.044Z,4.10
2018-11-28T09:15:31.362Z,4.10
2018-11-28T09:17:58.975Z,4.10
2018-11-28T09:20:27.156Z,4.20
2018-11-28T09:22:55.344Z,4.20
2018-11-28T09:25:23.601Z,4.20
2018-11-28T09:27:53.688Z,4.20
2018-11-28T09:30:21.793Z,4.20
2018-11-28T09:32:50.460Z,4.30
2018-11-28T09:35:19.018Z,4.30
2018-11-28T09:37:47.145Z,4.40
2018-11-28T09:40:16.504Z,4.50
2018-11-28T09:42:44.636Z,4.50
2018-11-28T09:45:13.908Z,4.50
2018-11-28T09:47:42.035Z,4.60
2018-11-28T09:50:13.352Z,4.60
2018-11-28T09:52:41.505Z,4.70
2018-11-28T09:55:12.192Z,4.80
2018-11-28T09:57:40.316Z,4.80
2018-11-28T10:00:15.233Z,4.90
2018-11-28T10:02:43.344Z,4.90
2018-11-28T10:05:13.840Z,5.00
2018-11-28T10:07:41.948Z,5.00
2018-11-28T10:10:11.328Z,5.00
2018-11-28T10:12:39.460Z,5.10
2018-11-28T10:15:16.617Z,5.20
2018-11-28T10:17:44.834Z,5.20
2018-11-28T10:20:13.704Z,5.30
2018-11-28T10:22:42.003Z,5.30
2018-11-28T10:25:27.916Z,5.40
2018-11-28T10:28:02.453Z,5.40
2018-11-28T10:30:31.849Z,5.40
2018-11-28T10:33:00.100Z,5.50
2018-11-28T10:35:28.365Z,5.50
2018-11-28T10:37:56.540Z,5.50
2018-11-28T10:40:25.003Z,5.50
2018-11-28T10:42:55.247Z,5.60
2018-11-28T10:45:24.352Z,5.70
2018-11-28T10:47:52.472Z,5.80
2018-11-28T10:50:20.548Z,5.90
2018-11-28T10:52:48.636Z,6.00
2018-11-28T10:55:18.842Z,6.00
2018-11-28T10:57:46.976Z,6.10
2018-11-28T11:00:26.433Z,6.10
2018-11-28T11:02:59.876Z,6.20
2018-11-28T11:05:33.452Z,6.20
2018-11-28T11:08:07.082Z,6.30
2018-11-28T11:10:40.789Z,6.30
2018-11-28T11:13:14.368Z,6.30
2018-11-28T11:15:42.462Z,6.40
2018-11-28T11:18:11.552Z,6.40
2018-11-28T11:20:39.752Z,6.40
2018-11-28T11:23:08.544Z,6.40
2018-11-28T11:25:36.661Z,6.40
2018-11-28T11:28:05.020Z,6.40
2018-11-28T11:30:33.155Z,6.40
2018-11-28T11:33:01.344Z,6.50
2018-11-28T11:35:29.419Z,6.50
2018-11-28T11:37:57.604Z,6.50
2018-11-28T11:40:25.773Z,6.50
2018-11-28T11:42:53.950Z,6.60
2018-11-28T11:45:22.038Z,6.60
2018-11-28T11:47:50.216Z,6.70
2018-11-28T11:50:18.900Z,6.70
2018-11-28T11:52:47.071Z,6.80
2018-11-28T11:55:17.121Z,6.80
2018-11-28T11:57:45.297Z,6.80
2018-11-28T12:00:18.308Z,6.80
2018-11-28T12:02:53.352Z,6.80
2018-11-28T12:05:21.462Z,6.70
2018-11-28T12:07:49.533Z,6.70
2018-11-28T12:10:17.629Z,6.70
2018-11-28T12:12:51.513Z,6.70
2018-11-28T12:15:15.789Z,6.70
2018-11-28T12:17:45.237Z,6.60
2018-11-28T12:20:17.736Z,6.70
2018-11-28T12:22:45.968Z,6.70
2018-11-28T12:25:14.125Z,6.70
2018-11-28T12:27:42.300Z,6.80
2018-11-28T12:30:12.656Z,6.80
2018-11-28T12:32:40.852Z,6.80
2018-11-28T12:35:11.356Z,6.90
2018-11-28T12:37:39.761Z,7.40
2018-11-28T12:40:09.984Z,7.50
2018-11-28T12:42:38.072Z,7.60
2018-11-28T12:45:11.476Z,7.60
2018-11-28T12:47:39.577Z,7.60
2018-11-28T12:50:17.723Z,7.60
2018-11-28T12:52:45.884Z,7.50
2018-11-28T12:55:14.057Z,7.50
2018-11-28T12:57:42.157Z,7.40
2018-11-28T13:00:12.732Z,7.40
2018-11-28T13:02:40.930Z,7.40
2018-11-28T13:05:13.763Z,7.40
2018-11-28T13:07:41.863Z,7.40
2018-11-28T13:10:16.149Z,7.40
2018-11-28T13:12:44.767Z,7.40
2018-11-28T13:15:14.812Z,7.40
2018-11-28T13:17:42.976Z,7.40
2018-11-28T13:20:12.424Z,7.40
2018-11-28T13:22:40.552Z,7.40
2018-11-28T13:25:11.061Z,7.40
2018-11-28T13:27:39.244Z,7.40
2018-11-28T13:30:13.256Z,7.40
2018-11-28T13:32:41.852Z,7.40
2018-11-28T13:35:10.783Z,7.40
2018-11-28T13:37:38.956Z,7.40
2018-11-28T13:40:09.272Z,7.30
2018-11-28T13:42:37.396Z,7.30
2018-11-28T13:45:09.531Z,7.30
2018-11-28T13:47:37.652Z,7.30
2018-11-28T13:50:07.450Z,7.20
2018-11-28T13:52:35.560Z,7.20
2018-11-28T13:57:34.296Z,7.20
2018-11-28T14:00:02.464Z,7.20
2018-11-28T14:02:30.763Z,7.20
2018-11-28T14:04:58.945Z,7.20
2018-11-28T14:07:27.159Z,7.20
2018-11-28T14:09:55.344Z,7.30
2018-11-28T14:12:23.584Z,7.30
2018-11-28T14:14:51.712Z,7.30
2018-11-28T14:17:19.908Z,7.20
2018-11-28T14:19:48.097Z,7.20
2018-11-28T14:22:16.284Z,7.20
2018-11-28T14:24:44.459Z,7.20
2018-11-28T14:27:12.660Z,7.10
2018-11-28T14:29:40.842Z,7.10
2018-11-28T14:32:09.035Z,7.10
2018-11-28T14:34:37.221Z,7.10
2018-11-28T14:37:05.996Z,7.10
2018-11-28T14:39:34.200Z,7.10
2018-11-28T14:42:02.392Z,7.10
2018-11-28T14:44:30.576Z,7.10
2018-11-28T14:46:58.764Z,7.10
2018-11-28T14:49:26.968Z,7.10
2018-11-28T14:51:55.131Z,7.10
2018-11-28T14:54:23.326Z,7.10
2018-11-28T14:56:51.511Z,7.10
2018-11-28T14:59:19.700Z,7.10
2018-11-28T15:01:48.948Z,7.10
2018-11-28T15:04:16.081Z,7.00
2018-11-28T15:06:51.477Z,7.00
2018-11-28T15:09:25.341Z,7.00
2018-11-28T15:11:53.513Z,6.90
2018-11-28T15:14:21.592Z,6.90
2018-11-28T15:16:49.676Z,6.90
2018-11-28T15:19:17.791Z,6.90
2018-11-28T15:21:45.867Z,6.80
2018-11-28T15:24:14.037Z,6.80
2018-11-28T15:26:42.228Z,6.80
2018-11-28T15:29:10.410Z,6.80
2018-11-28T15:31:38.495Z,6.80
2018-11-28T15:34:07.032Z,6.80
2018-11-28T15:36:35.152Z,6.70
2018-11-28T15:39:03.510Z,6.70
2018-11-28T15:41:31.644Z,6.70
2018-11-28T15:43:59.742Z,6.70
2018-11-28T15:46:27.916Z,6.70
2018-11-28T15:48:56.009Z,6.70
2018-11-28T15:51:24.184Z,6.60
2018-11-28T15:53:52.281Z,6.60
2018-11-28T15:56:20.469Z,6.60
2018-11-28T15:58:48.568Z,6.60
2018-11-28T16:01:16.733Z,6.60
2018-11-28T16:03:44.835Z,6.60
2018-11-28T16:06:13.011Z,6.60
2018-11-28T16:08:41.193Z,6.60
2018-11-28T16:11:11.717Z,6.60
2018-11-28T16:13:39.822Z,6.50
2018-11-28T16:16:08.158Z,6.50
2018-11-28T16:18:36.312Z,6.50
2018-11-28T16:21:04.498Z,6.50
2018-11-28T16:23:32.665Z,6.50
2018-11-28T16:26:00.895Z,6.50
2018-11-28T16:28:29.056Z,6.40
2018-11-28T16:30:57.247Z,6.40
2018-11-28T16:33:25.467Z,6.40
2018-11-28T16:35:53.625Z,6.40
2018-11-28T16:38:21.816Z,6.40
2018-11-28T16:40:50.048Z,6.40
2018-11-28T16:43:18.178Z,6.30
2018-11-28T16:45:46.384Z,6.30
2018-11-28T16:48:14.543Z,6.30
2018-11-28T16:50:42.736Z,6.30
2018-11-28T16:53:10.942Z,6.30
2018-11-28T16:55:39.140Z,6.30
2018-11-28T16:58:07.916Z,6.30
2018-11-28T17:00:38.072Z,6.30
2018-11-28T17:03:06.236Z,6.20
2018-11-28T17:05:34.420Z,6.20
2018-11-28T17:08:02.653Z,6.20
2018-11-28T17:10:30.960Z,6.20
2018-11-28T17:12:59.680Z,6.10
2018-11-28T17:15:27.811Z,6.10
2018-11-28T17:17:56.036Z,6.10
2018-11-28T17:20:25.264Z,6.10
2018-11-28T17:22:54.477Z,6.10
2018-11-28T17:25:24.715Z,6.00
2018-11-28T17:27:52.846Z,6.00
2018-11-28T17:30:22.312Z,6.00
2018-11-28T17:32:50.456Z,6.00
2018-11-28T17:35:18.641Z,6.00
2018-11-28T17:37:46.812Z,6.00
2018-11-28T17:40:15.967Z,6.00
2018-11-28T17:42:45.260Z,6.00
2018-11-28T17:45:14.365Z,6.00
2018-11-28T17:47:42.555Z,6.00
2018-11-28T17:50:18.806Z,6.00
2018-11-28T17:52:52.992Z,6.00
2018-11-28T17:55:21.104Z,6.00
2018-11-28T17:57:49.300Z,6.00
2018-11-28T18:00:18.924Z,6.00
2018-11-28T18:02:47.118Z,6.00
2018-11-28T18:05:15.286Z,6.00
2018-11-28T18:07:43.505Z,6.10
2018-11-28T18:10:13.056Z,6.10
2018-11-28T18:12:52.695Z,6.10
2018-11-28T18:15:21.216Z,6.10
2018-11-28T18:17:49.510Z,6.10
2018-11-28T18:20:17.620Z,6.10
2018-11-28T18:22:45.824Z,6.10
2018-11-28T18:25:14.007Z,6.10
2018-11-28T18:27:42.192Z,6.10
2018-11-28T18:30:11.673Z,6.10
2018-11-28T18:32:39.813Z,6.10
2018-11-28T18:35:09.476Z,6.10
2018-11-28T18:37:37.841Z,6.20
2018-11-28T18:40:09.489Z,6.10
2018-11-28T18:42:37.684Z,6.20
2018-11-28T18:45:12.080Z,6.20
2018-11-28T18:47:40.279Z,6.10
2018-11-28T18:50:09.671Z,6.20
2018-11-28T18:52:37.928Z,6.20
2018-11-28T18:55:08.596Z,6.20
2018-11-28T18:57:36.736Z,6.20
2018-11-28T19:00:08.656Z,6.20
2018-11-28T19:02:36.788Z,6.20
2018-11-28T19:05:05.554Z,6.20
2018-11-28T19:07:34.473Z,6.20
2018-11-28T19:10:01.824Z,6.20
2018-11-28T19:12:30.000Z,6.20
2018-11-28T19:14:58.119Z,6.20
2018-11-28T19:17:26.292Z,6.20
2018-11-28T19:19:54.466Z,6.20
2018-11-28T19:22:22.658Z,6.20
2018-11-28T19:24:50.877Z,6.20
2018-11-28T19:27:19.048Z,6.20
2018-11-28T19:29:47.225Z,6.10
2018-11-28T19:32:15.404Z,6.20
2018-11-28T19:34:43.589Z,6.10
2018-11-28T19:37:11.754Z,6.10
2018-11-28T19:39:39.844Z,6.10
2018-11-28T19:42:07.979Z,6.10
2018-11-28T19:44:36.128Z,6.10
2018-11-28T19:47:04.228Z,6.10
2018-11-28T19:49:32.428Z,6.10
2018-11-28T19:52:00.594Z,6.10
2018-11-28T19:54:28.819Z,6.10
2018-11-28T19:56:56.961Z,6.10
2018-11-28T19:59:25.151Z,6.10
2018-11-28T20:01:53.245Z,6.10
2018-11-28T20:04:21.467Z,6.10
2018-11-28T20:06:49.510Z,6.00
2018-11-28T20:09:19.576Z,6.00
2018-11-28T20:11:47.728Z,6.00
2018-11-28T20:14:15.901Z,6.00
2018-11-28T20:16:44.003Z,6.00
2018-11-28T20:19:17.409Z,6.00
2018-11-28T20:21:40.262Z,6.00
2018-11-28T20:24:08.349Z,6.00
2018-11-28T20:26:36.432Z,6.00
2018-11-28T20:29:04.872Z,6.00
2018-11-28T20:31:33.021Z,6.00
2018-11-28T20:34:01.188Z,6.00
2018-11-28T20:36:29.285Z,6.00
2018-11-28T20:38:57.372Z,6.00
2018-11-28T20:41:25.588Z,6.00
2018-11-28T20:43:53.744Z,6.00
2018-11-28T20:46:21.927Z,6.00
2018-11-28T20:48:50.016Z,5.90
2018-11-28T20:51:18.197Z,5.90
2018-11-28T20:53:46.277Z,5.90
2018-11-28T20:56:14.356Z,6.00
2018-11-28T20:58:42.453Z,6.00
2018-11-28T21:01:10.533Z,6.00
2018-11-28T21:03:38.616Z,5.90
2018-11-28T21:06:06.699Z,5.90
2018-11-28T21:08:34.796Z,6.00
2018-11-28T21:11:02.977Z,6.00
2018-11-28T21:13:31.067Z,6.00
2018-11-28T21:15:59.236Z,6.00
2018-11-28T21:18:27.337Z,6.00
2018-11-28T21:20:55.415Z,6.00
2018-11-28T21:23:23.505Z,6.00
2018-11-28T21:25:51.589Z,6.00
2018-11-28T21:28:19.672Z,6.00
2018-11-28T21:30:47.758Z,6.00
2018-11-28T21:33:15.939Z,6.00
2018-11-28T21:35:47.894Z,5.90
2018-11-28T21:38:16.016Z,6.00
2018-11-28T21:40:44.196Z,6.00
2018-11-28T21:43:12.386Z,6.00
2018-11-28T21:45:40.561Z,6.00
2018-11-28T21:48:08.659Z,6.00
2018-11-28T21:50:36.833Z,6.00
2018-11-28T21:53:06.428Z,6.00
2018-11-28T21:55:34.548Z,6.00
2018-11-28T21:58:02.803Z,6.00
2018-11-28T22:00:31.124Z,5.90
2018-11-28T22:02:59.291Z,5.90
2018-11-28T22:05:27.387Z,5.90
2018-11-28T22:07:55.572Z,5.90
2018-11-28T22:10:24.723Z,5.90
2018-11-28T22:12:53.563Z,5.90
2018-11-28T22:15:21.679Z,5.80
2018-11-28T22:17:52.704Z,5.80
2018-11-28T22:20:20.847Z,5.80
2018-11-28T22:22:48.990Z,5.80
2018-11-28T22:25:19.935Z,5.80
2018-11-28T22:27:48.033Z,5.80
2018-11-28T22:30:18.255Z,5.90
2018-11-28T22:32:46.348Z,5.90
2018-11-28T22:35:14.447Z,5.90
2018-11-28T22:37:42.624Z,5.90
2018-11-28T22:40:15.001Z,5.90
2018-11-28T22:42:43.091Z,5.90
2018-11-28T22:45:16.399Z,5.90
2018-11-28T22:47:44.493Z,5.90
2018-11-28T22:50:13.059Z,5.90
2018-11-28T22:52:41.177Z,5.90
2018-11-28T22:55:13.535Z,5.90
2018-11-28T22:57:41.646Z,5.90
2018-11-28T23:00:23.172Z,5.90
2018-11-28T23:02:52.525Z,5.90
2018-11-28T23:05:21.735Z,5.90
2018-11-28T23:07:49.874Z,5.90
2018-11-28T23:10:18.065Z,5.90
2018-11-28T23:12:46.256Z,5.90
2018-11-28T23:15:14.458Z,5.90
2018-11-28T23:17:42.624Z,5.90
2018-11-28T23:20:10.825Z,5.90
2018-11-28T23:22:38.999Z,5.90
2018-11-28T23:25:09.085Z,5.90
2018-11-28T23:27:37.292Z,5.90
2018-11-28T23:30:08.637Z,5.90
2018-11-28T23:32:36.767Z,6.00
2018-11-28T23:35:06.349Z,5.90
2018-11-28T23:37:34.479Z,6.00
2018-11-28T23:40:02.664Z,5.90
2018-11-28T23:42:30.863Z,5.90
2018-11-28T23:44:59.021Z,5.90
2018-11-28T23:47:27.641Z,5.90
2018-11-28T23:49:55.933Z,5.90
2018-11-28T23:52:24.104Z,5.90
2018-11-28T23:54:52.374Z,5.90
2018-11-28T23:57:20.476Z,5.90
2018-11-28T23:59:48.673Z,5.90
